sensor_id;sensor_type;location;lat;lon;timestamp;pressure;altitude;pressure_sealevel;temperature;humidity
57462;BME280;43308;47.306;8.608;2024-03-08T00:01:10;94984.53;;;1.50;84.08
57462;BME280;43308;47.306;8.608;2024-03-08T00:03:36;94986.88;;;1.47;84.10
57462;BME280;43308;47.306;8.608;2024-03-08T00:06:02;94992.41;;;1.45;84.09
57462;BME280;43308;47.306;8.608;2024-03-08T00:08:28;94986.56;;;1.43;84.13
57462;BME280;43308;47.306;8.608;2024-03-08T00:10:54;94981.81;;;1.40;84.02
57462;BME280;43308;47.306;8.608;2024-03-08T00:13:19;94985.22;;;1.41;84.19
57462;BME280;43308;47.306;8.608;2024-03-08T00:15:46;94985.50;;;1.39;84.45
57462;BME280;43308;47.306;8.608;2024-03-08T00:18:13;94986.53;;;1.38;84.11
57462;BME280;43308;47.306;8.608;2024-03-08T00:20:39;94990.97;;;1.38;84.35
57462;BME280;43308;47.306;8.608;2024-03-08T00:23:05;94981.75;;;1.35;84.14
57462;BME280;43308;47.306;8.608;2024-03-08T00:25:31;94983.81;;;1.33;84.33
57462;BME280;43308;47.306;8.608;2024-03-08T00:27:57;94969.63;;;1.34;84.20
57462;BME280;43308;47.306;8.608;2024-03-08T00:30:23;94975.94;;;1.33;84.38
57462;BME280;43308;47.306;8.608;2024-03-08T00:32:51;94975.69;;;1.35;84.30
57462;BME280;43308;47.306;8.608;2024-03-08T00:35:17;94970.44;;;1.35;84.37
57462;BME280;43308;47.306;8.608;2024-03-08T00:37:43;94964.06;;;1.31;84.33
57462;BME280;43308;47.306;8.608;2024-03-08T00:40:12;94959.06;;;1.29;84.76
57462;BME280;43308;47.306;8.608;2024-03-08T00:42:38;94960.41;;;1.32;84.65
57462;BME280;43308;47.306;8.608;2024-03-08T00:45:07;94958.81;;;1.31;84.49
57462;BME280;43308;47.306;8.608;2024-03-08T00:47:33;94951.69;;;1.26;84.35
57462;BME280;43308;47.306;8.608;2024-03-08T00:49:59;94956.69;;;1.28;84.74
57462;BME280;43308;47.306;8.608;2024-03-08T00:52:25;94952.47;;;1.27;84.50
57462;BME280;43308;47.306;8.608;2024-03-08T00:54:51;94949.84;;;1.27;84.46
57462;BME280;43308;47.306;8.608;2024-03-08T00:57:17;94951.69;;;1.26;84.58
57462;BME280;43308;47.306;8.608;2024-03-08T00:59:42;94942.69;;;1.22;84.57
57462;BME280;43308;47.306;8.608;2024-03-08T01:02:08;94946.13;;;1.23;84.36
57462;BME280;43308;47.306;8.608;2024-03-08T01:04:37;94942.69;;;1.22;84.36
57462;BME280;43308;47.306;8.608;2024-03-08T01:07:03;94937.66;;;1.21;84.35
57462;BME280;43308;47.306;8.608;2024-03-08T01:09:29;94941.59;;;1.18;84.34
57462;BME280;43308;47.306;8.608;2024-03-08T01:11:55;94940.78;;;1.18;84.39
57462;BME280;43308;47.306;8.608;2024-03-08T01:14:23;94940.25;;;1.16;84.43
57462;BME280;43308;47.306;8.608;2024-03-08T01:16:49;94941.28;;;1.15;84.41
57462;BME280;43308;47.306;8.608;2024-03-08T01:19:15;94927.84;;;1.11;84.25
57462;BME280;43308;47.306;8.608;2024-03-08T01:21:42;94931.25;;;1.12;84.59
57462;BME280;43308;47.306;8.608;2024-03-08T01:24:08;94930.72;;;1.10;84.26
57462;BME280;43308;47.306;8.608;2024-03-08T01:26:34;94928.91;;;1.10;84.32
57462;BME280;43308;47.306;8.608;2024-03-08T01:29:02;94921.25;;;1.08;84.38
57462;BME280;43308;47.306;8.608;2024-03-08T01:31:31;94917.81;;;1.08;84.34
57462;BME280;43308;47.306;8.608;2024-03-08T01:33:58;94918.88;;;1.07;84.45
57462;BME280;43308;47.306;8.608;2024-03-08T01:36:25;94914.41;;;1.08;84.71
57462;BME280;43308;47.306;8.608;2024-03-08T01:38:52;94914.94;;;1.10;84.61
57462;BME280;43308;47.306;8.608;2024-03-08T01:41:19;94910.50;;;1.10;84.55
57462;BME280;43308;47.306;8.608;2024-03-08T01:43:45;94913.91;;;1.11;84.72
57462;BME280;43308;47.306;8.608;2024-03-08T01:46:15;94905.47;;;1.08;84.78
57462;BME280;43308;47.306;8.608;2024-03-08T01:48:44;94903.09;;;1.07;84.78
57462;BME280;43308;47.306;8.608;2024-03-08T01:51:12;94906.75;;;1.06;84.38
57462;BME280;43308;47.306;8.608;2024-03-08T01:53:38;94897.78;;;1.02;84.67
57462;BME280;43308;47.306;8.608;2024-03-08T01:56:05;94902.25;;;1.01;84.82
57462;BME280;43308;47.306;8.608;2024-03-08T01:58:32;94892.78;;;1.00;84.70
57462;BME280;43308;47.306;8.608;2024-03-08T02:00:59;94898.53;;;0.97;85.08
57462;BME280;43308;47.306;8.608;2024-03-08T02:03:25;94895.91;;;0.97;84.93
57462;BME280;43308;47.306;8.608;2024-03-08T02:05:51;94888.75;;;0.93;84.83
57462;BME280;43308;47.306;8.608;2024-03-08T02:08:18;94886.59;;;0.90;84.64
57462;BME280;43308;47.306;8.608;2024-03-08T02:10:44;94881.59;;;0.88;84.61
57462;BME280;43308;47.306;8.608;2024-03-08T02:13:11;94886.06;;;0.88;84.75
57462;BME280;43308;47.306;8.608;2024-03-08T02:15:57;94871.81;;;0.84;84.64
57462;BME280;43308;47.306;8.608;2024-03-08T02:18:27;94870.00;;;0.84;84.79
57462;BME280;43308;47.306;8.608;2024-03-08T02:21:03;94874.72;;;0.82;85.00
57462;BME280;43308;47.306;8.608;2024-03-08T02:23:29;94871.28;;;0.82;84.50
57462;BME280;43308;47.306;8.608;2024-03-08T02:25:56;94860.97;;;0.75;84.64
57462;BME280;43308;47.306;8.608;2024-03-08T02:28:23;94858.34;;;0.75;84.76
57462;BME280;43308;47.306;8.608;2024-03-08T02:30:51;94855.13;;;0.73;84.38
57462;BME280;43308;47.306;8.608;2024-03-08T02:33:22;94858.25;;;0.70;84.23
57462;BME280;43308;47.306;8.608;2024-03-08T02:35:49;94854.06;;;0.69;84.67
57462;BME280;43308;47.306;8.608;2024-03-08T02:38:19;94852.25;;;0.70;84.50
57462;BME280;43308;47.306;8.608;2024-03-08T02:40:49;94855.09;;;0.68;84.90
57462;BME280;43308;47.306;8.608;2024-03-08T02:43:17;94857.72;;;0.68;84.68
57462;BME280;43308;47.306;8.608;2024-03-08T02:45:46;94842.19;;;0.67;84.95
57462;BME280;43308;47.306;8.608;2024-03-08T02:48:13;94836.94;;;0.67;84.82
57462;BME280;43308;47.306;8.608;2024-03-08T02:50:40;94836.16;;;0.66;85.36
57462;BME280;43308;47.306;8.608;2024-03-08T02:53:06;94831.69;;;0.67;85.34
57462;BME280;43308;47.306;8.608;2024-03-08T02:55:32;94831.22;;;0.70;85.74
57462;BME280;43308;47.306;8.608;2024-03-08T02:58:04;94826.75;;;0.70;85.63
57462;BME280;43308;47.306;8.608;2024-03-08T03:00:30;94827.53;;;0.71;86.17
57462;BME280;43308;47.306;8.608;2024-03-08T03:02:57;94829.63;;;0.69;86.24
57462;BME280;43308;47.306;8.608;2024-03-08T03:05:23;94830.72;;;0.73;86.61
57462;BME280;43308;47.306;8.608;2024-03-08T03:07:50;94826.25;;;0.73;86.88
57462;BME280;43308;47.306;8.608;2024-03-08T03:10:17;94827.31;;;0.72;86.76
57462;BME280;43308;47.306;8.608;2024-03-08T03:12:44;94828.34;;;0.71;86.95
57462;BME280;43308;47.306;8.608;2024-03-08T03:15:12;94826.25;;;0.73;87.30
57462;BME280;43308;47.306;8.608;2024-03-08T03:17:39;94820.22;;;0.73;87.50
57462;BME280;43308;47.306;8.608;2024-03-08T03:20:07;94819.47;;;0.77;87.44
57462;BME280;43308;47.306;8.608;2024-03-08T03:22:38;94808.97;;;0.77;87.61
57462;BME280;43308;47.306;8.608;2024-03-08T03:25:04;94812.16;;;0.79;87.11
57462;BME280;43308;47.306;8.608;2024-03-08T03:27:32;94810.00;;;0.76;87.20
57462;BME280;43308;47.306;8.608;2024-03-08T03:29:58;94807.63;;;0.75;87.20
57462;BME280;43308;47.306;8.608;2024-03-08T03:32:24;94807.63;;;0.75;87.61
57462;BME280;43308;47.306;8.608;2024-03-08T03:34:50;94809.16;;;0.71;87.53
57462;BME280;43308;47.306;8.608;2024-03-08T03:37:19;94811.78;;;0.71;87.61
57462;BME280;43308;47.306;8.608;2024-03-08T03:39:45;94813.06;;;0.68;87.88
57462;BME280;43308;47.306;8.608;2024-03-08T03:42:19;94805.19;;;0.68;88.03
57462;BME280;43308;47.306;8.608;2024-03-08T03:44:48;94813.06;;;0.68;88.29
57462;BME280;43308;47.306;8.608;2024-03-08T03:47:15;94804.88;;;0.65;88.27
57462;BME280;43308;47.306;8.608;2024-03-08T03:49:41;94806.72;;;0.64;88.26
57462;BME280;43308;47.306;8.608;2024-03-08T03:52:07;94803.84;;;0.66;88.06
57462;BME280;43308;47.306;8.608;2024-03-08T03:54:33;94802.25;;;0.65;88.08
57462;BME280;43308;47.306;8.608;2024-03-08T03:56:59;94802.03;;;0.66;88.15
57462;BME280;43308;47.306;8.608;2024-03-08T03:59:29;94789.13;;;0.65;88.42
57462;BME280;43308;47.306;8.608;2024-03-08T04:01:55;94789.66;;;0.67;88.43
57462;BME280;43308;47.306;8.608;2024-03-08T04:04:21;94798.09;;;0.69;88.33
57462;BME280;43308;47.306;8.608;2024-03-08T04:06:47;94781.25;;;0.65;88.41
57462;BME280;43308;47.306;8.608;2024-03-08T04:09:13;94781.50;;;0.63;88.55
57462;BME280;43308;47.306;8.608;2024-03-08T04:11:39;94790.16;;;0.64;88.29
57462;BME280;43308;47.306;8.608;2024-03-08T04:14:05;94779.59;;;0.59;88.00
57462;BME280;43308;47.306;8.608;2024-03-08T04:16:31;94790.13;;;0.59;88.78
57462;BME280;43308;47.306;8.608;2024-03-08T04:18:58;94788.22;;;0.54;88.27
57462;BME280;43308;47.306;8.608;2024-03-08T04:21:24;94785.34;;;0.56;88.22
57462;BME280;43308;47.306;8.608;2024-03-08T04:23:50;94781.44;;;0.58;88.35
57462;BME280;43308;47.306;8.608;2024-03-08T04:27:52;94781.44;;;0.58;88.69
57462;BME280;43308;47.306;8.608;2024-03-08T04:30:18;94782.00;;;0.60;88.30
57462;BME280;43308;47.306;8.608;2024-03-08T04:32:46;94783.56;;;0.61;88.34
57462;BME280;43308;47.306;8.608;2024-03-08T04:35:13;94779.13;;;0.62;88.57
57462;BME280;43308;47.306;8.608;2024-03-08T04:37:40;94775.75;;;0.66;88.40
57462;BME280;43308;47.306;8.608;2024-03-08T04:40:06;94782.38;;;0.74;88.41
57462;BME280;43308;47.306;8.608;2024-03-08T04:42:33;94783.25;;;0.79;88.40
57462;BME280;43308;47.306;8.608;2024-03-08T04:45:00;94777.50;;;0.82;88.29
57462;BME280;43308;47.306;8.608;2024-03-08T04:47:26;94780.13;;;0.82;88.13
57462;BME280;43308;47.306;8.608;2024-03-08T04:49:52;94771.75;;;0.85;88.20
57462;BME280;43308;47.306;8.608;2024-03-08T04:52:18;94772.59;;;0.91;88.12
57462;BME280;43308;47.306;8.608;2024-03-08T04:54:44;94779.16;;;0.93;87.82
57462;BME280;43308;47.306;8.608;2024-03-08T04:57:10;94782.91;;;0.97;88.00
57462;BME280;43308;47.306;8.608;2024-03-08T04:59:36;94771.88;;;1.00;87.84
57462;BME280;43308;47.306;8.608;2024-03-08T05:02:02;94777.44;;;1.04;87.92
57462;BME280;43308;47.306;8.608;2024-03-08T05:04:28;94784.25;;;1.05;88.09
57462;BME280;43308;47.306;8.608;2024-03-08T05:06:55;94775.88;;;1.08;87.96
57462;BME280;43308;47.306;8.608;2024-03-08T05:09:21;94767.75;;;1.10;87.81
57462;BME280;43308;47.306;8.608;2024-03-08T05:11:47;94778.00;;;1.11;87.86
57462;BME280;43308;47.306;8.608;2024-03-08T05:14:14;94771.72;;;1.12;87.63
57462;BME280;43308;47.306;8.608;2024-03-08T05:16:46;94761.75;;;1.14;87.75
57462;BME280;43308;47.306;8.608;2024-03-08T05:19:19;94761.25;;;1.17;87.74
57462;BME280;43308;47.306;8.608;2024-03-08T05:21:46;94758.63;;;1.17;87.61
57462;BME280;43308;47.306;8.608;2024-03-08T05:24:13;94758.38;;;1.19;87.61
57462;BME280;43308;47.306;8.608;2024-03-08T05:26:40;94758.88;;;1.21;87.65
57462;BME280;43308;47.306;8.608;2024-03-08T05:29:06;94758.69;;;1.27;87.76
57462;BME280;43308;47.306;8.608;2024-03-08T05:31:51;94757.41;;;1.30;87.59
57462;BME280;43308;47.306;8.608;2024-03-08T05:34:18;94766.63;;;1.32;87.41
57462;BME280;43308;47.306;8.608;2024-03-08T05:36:45;94760.56;;;1.32;87.31
57462;BME280;43308;47.306;8.608;2024-03-08T05:39:13;94769.78;;;1.34;87.39
57462;BME280;43308;47.306;8.608;2024-03-08T05:41:40;94772.19;;;1.36;87.23
57462;BME280;43308;47.306;8.608;2024-03-08T05:44:06;94763.22;;;1.37;87.21
57462;BME280;43308;47.306;8.608;2024-03-08T05:46:32;94761.41;;;1.37;87.38
57462;BME280;43308;47.306;8.608;2024-03-08T05:48:58;94765.63;;;1.38;87.18
57462;BME280;43308;47.306;8.608;2024-03-08T05:51:38;94763.78;;;1.39;87.28
57462;BME280;43308;47.306;8.608;2024-03-08T05:54:06;94758.53;;;1.39;87.02
57462;BME280;43308;47.306;8.608;2024-03-08T05:56:32;94759.56;;;1.38;87.38
57462;BME280;43308;47.306;8.608;2024-03-08T05:58:58;94760.38;;;1.38;87.25
57462;BME280;43308;47.306;8.608;2024-03-08T06:01:26;94764.03;;;1.37;86.99
57462;BME280;43308;47.306;8.608;2024-03-08T06:03:56;94754.56;;;1.36;87.15
57462;BME280;43308;47.306;8.608;2024-03-08T06:06:23;94756.94;;;1.38;86.99
57462;BME280;43308;47.306;8.608;2024-03-08T06:08:50;94758.25;;;1.40;87.39
57462;BME280;43308;47.306;8.608;2024-03-08T06:11:17;94742.25;;;1.42;87.44
57462;BME280;43308;47.306;8.608;2024-03-08T06:13:44;94741.19;;;1.43;87.23
57462;BME280;43308;47.306;8.608;2024-03-08T06:16:09;94745.94;;;1.46;87.30
57462;BME280;43308;47.306;8.608;2024-03-08T06:18:36;94741.75;;;1.45;87.26
57462;BME280;43308;47.306;8.608;2024-03-08T06:21:08;94745.16;;;1.45;87.33
57462;BME280;43308;47.306;8.608;2024-03-08T06:23:38;94743.88;;;1.48;87.28
57462;BME280;43308;47.306;8.608;2024-03-08T06:26:04;94752.28;;;1.50;87.31
57462;BME280;43308;47.306;8.608;2024-03-08T06:28:31;94750.97;;;1.52;87.42
57462;BME280;43308;47.306;8.608;2024-03-08T06:30:58;94753.66;;;1.57;87.31
57462;BME280;43308;47.306;8.608;2024-03-08T06:33:24;94752.34;;;1.60;87.34
57462;BME280;43308;47.306;8.608;2024-03-08T06:35:56;94755.50;;;1.62;86.90
57462;BME280;43308;47.306;8.608;2024-03-08T06:38:23;94752.34;;;1.60;86.89
57462;BME280;43308;47.306;8.608;2024-03-08T06:40:50;94752.66;;;1.64;86.81
57462;BME280;43308;47.306;8.608;2024-03-08T06:43:17;94749.50;;;1.67;86.93
57462;BME280;43308;47.306;8.608;2024-03-08T06:45:48;94749.50;;;1.67;86.91
57462;BME280;43308;47.306;8.608;2024-03-08T06:48:18;94750.31;;;1.67;86.68
57462;BME280;43308;47.306;8.608;2024-03-08T06:50:44;94745.06;;;1.72;86.80
57462;BME280;43308;47.306;8.608;2024-03-08T06:53:11;94757.97;;;1.74;86.98
57462;BME280;43308;47.306;8.608;2024-03-08T06:55:37;94750.59;;;1.76;86.73
57462;BME280;43308;47.306;8.608;2024-03-08T06:58:04;94745.34;;;1.76;86.69
57462;BME280;43308;47.306;8.608;2024-03-08T07:00:29;94745.63;;;1.79;87.06
57462;BME280;43308;47.306;8.608;2024-03-08T07:02:56;94738.53;;;1.80;86.43
57462;BME280;43308;47.306;8.608;2024-03-08T07:05:27;94740.91;;;1.81;86.36
57462;BME280;43308;47.306;8.608;2024-03-08T07:07:53;94738.53;;;1.80;86.48
57462;BME280;43308;47.306;8.608;2024-03-08T07:10:23;94740.66;;;1.83;86.49
57462;BME280;43308;47.306;8.608;2024-03-08T07:12:53;94737.75;;;1.84;86.37
57462;BME280;43308;47.306;8.608;2024-03-08T07:15:19;94731.44;;;1.85;86.14
57462;BME280;43308;47.306;8.608;2024-03-08T07:17:46;94726.97;;;1.86;86.11
57462;BME280;43308;47.306;8.608;2024-03-08T07:20:13;94722.25;;;1.88;86.08
57462;BME280;43308;47.306;8.608;2024-03-08T07:22:41;94724.91;;;1.93;85.92
57462;BME280;43308;47.306;8.608;2024-03-08T07:25:08;94724.41;;;1.96;85.90
57462;BME280;43308;47.306;8.608;2024-03-08T07:27:47;94728.38;;;1.98;85.95
57462;BME280;43308;47.306;8.608;2024-03-08T07:30:13;94734.41;;;1.99;85.45
57462;BME280;43308;47.306;8.608;2024-03-08T07:32:59;94732.84;;;1.98;85.13
57462;BME280;43308;47.306;8.608;2024-03-08T07:35:28;94729.16;;;1.99;85.19
57462;BME280;43308;47.306;8.608;2024-03-08T07:37:55;94731.50;;;1.95;85.40
57462;BME280;43308;47.306;8.608;2024-03-08T07:40:23;94731.78;;;1.99;84.88
57462;BME280;43308;47.306;8.608;2024-03-08T07:42:49;94728.09;;;2.00;84.82
57462;BME280;43308;47.306;8.608;2024-03-08T07:45:16;94722.34;;;2.03;84.91
57462;BME280;43308;47.306;8.608;2024-03-08T07:47:42;94724.97;;;2.08;85.07
57462;BME280;43308;47.306;8.608;2024-03-08T07:50:08;94728.97;;;2.16;84.96
57462;BME280;43308;47.306;8.608;2024-03-08T07:52:35;94724.75;;;2.20;84.74
57462;BME280;43308;47.306;8.608;2024-03-08T07:55:05;94729.50;;;2.23;84.51
57462;BME280;43308;47.306;8.608;2024-03-08T07:57:31;94728.75;;;2.27;84.40
57462;BME280;43308;47.306;8.608;2024-03-08T07:59:57;94725.84;;;2.24;83.96
57462;BME280;43308;47.306;8.608;2024-03-08T08:02:24;94718.47;;;2.26;83.95
57462;BME280;43308;47.306;8.608;2024-03-08T08:04:49;94721.88;;;2.26;83.92
57462;BME280;43308;47.306;8.608;2024-03-08T08:07:15;94724.78;;;2.25;84.26
57462;BME280;43308;47.306;8.608;2024-03-08T08:09:41;94722.69;;;2.32;84.47
57462;BME280;43308;47.306;8.608;2024-03-08T08:12:09;94714.81;;;2.37;83.76
57462;BME280;43308;47.306;8.608;2024-03-08T08:14:38;94710.34;;;2.42;83.68
57462;BME280;43308;47.306;8.608;2024-03-08T08:17:05;94699.28;;;2.45;83.97
57462;BME280;43308;47.306;8.608;2024-03-08T08:19:31;94711.41;;;2.51;83.51
57462;BME280;43308;47.306;8.608;2024-03-08T08:21:57;94706.69;;;2.58;83.21
57462;BME280;43308;47.306;8.608;2024-03-08T08:24:23;94707.25;;;2.65;83.33
57462;BME280;43308;47.306;8.608;2024-03-08T08:26:50;94709.88;;;2.71;82.97
57462;BME280;43308;47.306;8.608;2024-03-08T08:29:16;94701.72;;;2.77;82.90
57462;BME280;43308;47.306;8.608;2024-03-08T08:31:42;94709.09;;;2.80;82.89
57462;BME280;43308;47.306;8.608;2024-03-08T08:34:11;94701.22;;;2.90;82.54
57462;BME280;43308;47.306;8.608;2024-03-08T08:36:37;94695.66;;;2.92;81.46
57462;BME280;43308;47.306;8.608;2024-03-08T08:39:05;94699.66;;;2.94;81.67
57462;BME280;43308;47.306;8.608;2024-03-08T08:41:31;94693.56;;;2.99;81.39
57462;BME280;43308;47.306;8.608;2024-03-08T08:43:57;94699.13;;;3.07;81.20
57462;BME280;43308;47.306;8.608;2024-03-08T08:46:23;94691.72;;;3.09;80.65
57462;BME280;43308;47.306;8.608;2024-03-08T08:48:48;94696.75;;;3.16;80.29
57462;BME280;43308;47.306;8.608;2024-03-08T08:51:14;94695.94;;;3.20;80.39
57462;BME280;43308;47.306;8.608;2024-03-08T08:53:42;94690.91;;;3.24;80.66
57462;BME280;43308;47.306;8.608;2024-03-08T08:56:13;94680.09;;;3.31;80.32
57462;BME280;43308;47.306;8.608;2024-03-08T08:58:40;94687.47;;;3.34;79.60
57462;BME280;43308;47.306;8.608;2024-03-08T09:01:09;94683.25;;;3.43;79.61
57462;BME280;43308;47.306;8.608;2024-03-08T09:03:36;94675.84;;;3.50;79.50
57462;BME280;43308;47.306;8.608;2024-03-08T09:06:07;94676.88;;;3.59;79.82
57462;BME280;43308;47.306;8.608;2024-03-08T09:08:39;94680.03;;;3.66;79.02
57462;BME280;43308;47.306;8.608;2024-03-08T09:11:05;94674.22;;;3.69;78.87
57462;BME280;43308;47.306;8.608;2024-03-08T09:13:31;94674.47;;;3.78;78.64
57462;BME280;43308;47.306;8.608;2024-03-08T09:15:59;94664.69;;;3.83;77.84
57462;BME280;43308;47.306;8.608;2024-03-08T09:18:25;94660.19;;;3.89;77.73
57462;BME280;43308;47.306;8.608;2024-03-08T09:20:51;94659.63;;;3.92;77.72
57462;BME280;43308;47.306;8.608;2024-03-08T09:23:19;94652.47;;;3.97;77.63
57462;BME280;43308;47.306;8.608;2024-03-08T09:25:45;94648.22;;;4.06;77.67
57462;BME280;43308;47.306;8.608;2024-03-08T09:28:12;94643.44;;;4.13;78.08
57462;BME280;43308;47.306;8.608;2024-03-08T09:30:38;94641.28;;;4.20;77.75
57462;BME280;43308;47.306;8.608;2024-03-08T09:33:05;94656.81;;;4.32;77.95
57462;BME280;43308;47.306;8.608;2024-03-08T09:35:31;94658.84;;;4.45;77.32
57462;BME280;43308;47.306;8.608;2024-03-08T09:37:57;94635.56;;;4.52;76.74
57462;BME280;43308;47.306;8.608;2024-03-08T09:40:23;94640.25;;;4.60;77.18
57462;BME280;43308;47.306;8.608;2024-03-08T09:42:51;94639.13;;;4.71;76.85
57462;BME280;43308;47.306;8.608;2024-03-08T09:45:20;94629.25;;;4.82;75.86
57462;BME280;43308;47.306;8.608;2024-03-08T09:47:48;94625.53;;;4.88;75.37
57462;BME280;43308;47.306;8.608;2024-03-08T09:50:16;94625.22;;;4.95;75.44
57462;BME280;43308;47.306;8.608;2024-03-08T09:52:46;94623.31;;;5.00;74.71
57462;BME280;43308;47.306;8.608;2024-03-08T09:55:12;94623.31;;;5.00;74.21
57462;BME280;43308;47.306;8.608;2024-03-08T09:57:39;94617.50;;;4.98;74.44
57462;BME280;43308;47.306;8.608;2024-03-08T10:00:06;94615.06;;;5.07;74.57
57462;BME280;43308;47.306;8.608;2024-03-08T10:02:47;94619.69;;;5.20;74.57
57462;BME280;43308;47.306;8.608;2024-03-08T10:05:14;94610.81;;;5.34;74.08
57462;BME280;43308;47.306;8.608;2024-03-08T10:07:40;94609.03;;;5.54;73.91
57462;BME280;43308;47.306;8.608;2024-03-08T10:10:06;94603.53;;;5.74;72.95
57462;BME280;43308;47.306;8.608;2024-03-08T10:12:37;94600.72;;;5.89;72.11
57462;BME280;43308;47.306;8.608;2024-03-08T10:15:06;94596.59;;;6.02;71.98
57462;BME280;43308;47.306;8.608;2024-03-08T10:17:34;94593.38;;;6.23;70.91
57462;BME280;43308;47.306;8.608;2024-03-08T10:20:00;94592.59;;;6.41;69.87
57462;BME280;43308;47.306;8.608;2024-03-08T10:22:26;94598.25;;;6.54;69.44
57462;BME280;43308;47.306;8.608;2024-03-08T10:24:52;94598.69;;;6.61;68.74
57462;BME280;43308;47.306;8.608;2024-03-08T10:27:18;94599.25;;;6.58;68.53
57462;BME280;43308;47.306;8.608;2024-03-08T10:29:48;94596.34;;;6.40;68.02
57462;BME280;43308;47.306;8.608;2024-03-08T10:32:14;94590.94;;;6.27;68.47
57462;BME280;43308;47.306;8.608;2024-03-08T10:34:40;94582.69;;;6.10;69.51
57462;BME280;43308;47.306;8.608;2024-03-08T10:37:15;94573.94;;;6.09;69.17
57462;BME280;43308;47.306;8.608;2024-03-08T10:39:53;94576.34;;;6.11;70.10
57462;BME280;43308;47.306;8.608;2024-03-08T10:42:26;94570.25;;;6.10;69.90
57462;BME280;43308;47.306;8.608;2024-03-08T10:45:06;94562.63;;;6.04;70.52
57462;BME280;43308;47.306;8.608;2024-03-08T10:47:40;94567.66;;;6.05;70.23
57462;BME280;43308;47.306;8.608;2024-03-08T10:50:11;94563.66;;;6.08;70.42
57462;BME280;43308;47.306;8.608;2024-03-08T10:52:40;94558.00;;;6.14;70.77
57462;BME280;43308;47.306;8.608;2024-03-08T10:55:06;94568.25;;;6.21;70.68
57462;BME280;43308;47.306;8.608;2024-03-08T10:57:41;94569.88;;;6.17;69.59
57462;BME280;43308;47.306;8.608;2024-03-08T11:00:07;94558.78;;;6.15;69.66
57462;BME280;43308;47.306;8.608;2024-03-08T11:02:36;94554.25;;;6.15;70.52
57462;BME280;43308;47.306;8.608;2024-03-08T11:05:03;94551.69;;;6.29;71.44
57462;BME280;43308;47.306;8.608;2024-03-08T11:07:35;94545.22;;;6.35;69.81
57462;BME280;43308;47.306;8.608;2024-03-08T11:10:02;94550.25;;;6.36;69.09
57462;BME280;43308;47.306;8.608;2024-03-08T11:12:36;94541.78;;;6.34;70.11
57462;BME280;43308;47.306;8.608;2024-03-08T11:15:12;94540.50;;;6.51;70.74
57462;BME280;43308;47.306;8.608;2024-03-08T11:17:48;94532.81;;;6.68;68.76
57462;BME280;43308;47.306;8.608;2024-03-08T11:20:18;94530.06;;;6.73;68.17
57462;BME280;43308;47.306;8.608;2024-03-08T11:22:54;94534.00;;;6.75;68.01
57462;BME280;43308;47.306;8.608;2024-03-08T11:25:37;94529.53;;;6.89;68.09
57462;BME280;43308;47.306;8.608;2024-03-08T11:30:46;94516.38;;;7.12;67.27
57462;BME280;43308;47.306;8.608;2024-03-08T11:33:15;94510.00;;;7.13;67.42
57462;BME280;43308;47.306;8.608;2024-03-08T11:35:42;94513.75;;;7.25;66.86
57462;BME280;43308;47.306;8.608;2024-03-08T11:38:10;94512.19;;;7.38;67.25
57462;BME280;43308;47.306;8.608;2024-03-08T11:40:36;94514.44;;;7.44;66.01
57462;BME280;43308;47.306;8.608;2024-03-08T11:43:03;94511.22;;;7.47;66.87
57462;BME280;43308;47.306;8.608;2024-03-08T11:45:35;94508.16;;;7.54;66.26
57462;BME280;43308;47.306;8.608;2024-03-08T11:48:06;94499.00;;;7.60;66.86
57462;BME280;43308;47.306;8.608;2024-03-08T11:50:32;94502.41;;;7.88;67.44
57462;BME280;43308;47.306;8.608;2024-03-08T11:53:03;94487.34;;;8.19;66.15
57462;BME280;43308;47.306;8.608;2024-03-08T11:55:30;94487.41;;;8.41;64.44
57462;BME280;43308;47.306;8.608;2024-03-08T11:58:05;94477.38;;;8.61;64.36
57462;BME280;43308;47.306;8.608;2024-03-08T12:00:32;94475.47;;;8.83;63.87
57462;BME280;43308;47.306;8.608;2024-03-08T12:03:05;94467.28;;;9.11;63.44
57462;BME280;43308;47.306;8.608;2024-03-08T12:05:32;94469.44;;;9.31;62.56
57462;BME280;43308;47.306;8.608;2024-03-08T12:07:59;94473.25;;;9.47;61.01
57462;BME280;43308;47.306;8.608;2024-03-08T12:10:25;94457.16;;;9.60;60.62
57462;BME280;43308;47.306;8.608;2024-03-08T12:12:53;94453.25;;;9.75;60.07
57462;BME280;43308;47.306;8.608;2024-03-08T12:15:22;94447.47;;;9.82;59.66
57462;BME280;43308;47.306;8.608;2024-03-08T12:17:50;94448.72;;;9.84;59.47
57462;BME280;43308;47.306;8.608;2024-03-08T12:22:44;94432.56;;;9.81;59.76
57462;BME280;43308;47.306;8.608;2024-03-08T12:25:13;94438.50;;;9.86;60.17
57462;BME280;43308;47.306;8.608;2024-03-08T12:27:40;94424.75;;;10.01;59.73
57462;BME280;43308;47.306;8.608;2024-03-08T12:30:22;94431.22;;;10.18;58.62
57462;BME280;43308;47.306;8.608;2024-03-08T12:32:51;94419.88;;;10.46;58.36
57462;BME280;43308;47.306;8.608;2024-03-08T12:35:20;94424.88;;;10.56;57.32
57462;BME280;43308;47.306;8.608;2024-03-08T12:37:52;94420.78;;;10.68;57.30
57462;BME280;43308;47.306;8.608;2024-03-08T12:40:25;94418.53;;;10.78;56.26
57462;BME280;43308;47.306;8.608;2024-03-08T12:42:52;94428.44;;;10.86;57.08
57462;BME280;43308;47.306;8.608;2024-03-08T12:45:18;94426.22;;;10.97;55.78
57462;BME280;43308;47.306;8.608;2024-03-08T12:47:44;94426.16;;;11.05;55.70
57462;BME280;43308;47.306;8.608;2024-03-08T12:50:10;94419.97;;;11.22;54.75
57462;BME280;43308;47.306;8.608;2024-03-08T12:52:36;94407.22;;;11.28;54.98
57462;BME280;43308;47.306;8.608;2024-03-08T12:55:02;94409.63;;;11.50;55.00
57462;BME280;43308;47.306;8.608;2024-03-08T12:57:28;94402.84;;;11.82;54.09
57462;BME280;43308;47.306;8.608;2024-03-08T12:59:54;94395.59;;;12.03;54.07
57462;BME280;43308;47.306;8.608;2024-03-08T13:02:20;94391.88;;;12.37;52.84
57462;BME280;43308;47.306;8.608;2024-03-08T13:04:49;94384.72;;;12.41;51.97
57462;BME280;43308;47.306;8.608;2024-03-08T13:07:21;94388.19;;;12.41;52.29
57462;BME280;43308;47.306;8.608;2024-03-08T13:09:49;94377.31;;;12.58;50.96
57462;BME280;43308;47.306;8.608;2024-03-08T13:12:15;94371.75;;;12.75;51.23
57462;BME280;43308;47.306;8.608;2024-03-08T13:14:44;94370.00;;;12.92;50.62
57462;BME280;43308;47.306;8.608;2024-03-08T13:17:09;94360.56;;;13.06;50.12
57462;BME280;43308;47.306;8.608;2024-03-08T13:19:36;94362.69;;;13.13;49.46